Main page
METAR-TAF:

METAR-TAF

Airports :

Broken Bow Municipal Airport

Broken Bow, Nebraska, United States

latitude: 41-26N, longitude: 099-39W, elevation: 2545 ft

Current weather observation

The report was made 1 hour and 8 minutes ago, at 11:53 UTC
Wind 8 mph from the South/Southwest
Temperature 36°F
Humidity 55%
Pressure 29.99 in. Hg
Visibility: 10 miles
Clear sky

METAR: KBBW 291153Z AUTO 20007KT 10SM CLR 02/M06 A2999 RMK AO2 SLP164 T00221061 10028 21039 56024

Time: 07:01 (13:01 UTC)


TAF: missing

Weather observations and forecasts of more than 4000 airports (METAR and TAF reports).

The available stations are represented by yellow and red dots on the map.

Hover mouse over dot to see the name of the station.

Then click to see weather observations and forecasts.

To change the map : click on the green buttons with a black cross to zoom in, on the green button with a dash to zoom out, or on the green arrows for adjacent maps.


METAR-TAF: